createdAt,value
2023-04-25T00:01:37.164Z,9.77
2023-04-25T00:03:40.484Z,5.40
2023-04-25T00:05:43.456Z,6.40
2023-04-25T00:07:47.131Z,4.63
2023-04-25T00:09:49.965Z,6.03
2023-04-25T00:11:52.507Z,6.25
2023-04-25T00:13:55.463Z,7.78
2023-04-25T00:15:59.201Z,6.57
2023-04-25T00:18:01.935Z,3.60
2023-04-25T00:20:10.731Z,3.88
2023-04-25T00:22:14.453Z,5.47
2023-04-25T00:24:17.032Z,4.40
2023-04-25T00:26:19.833Z,5.47
2023-04-25T00:28:22.376Z,5.32
2023-04-25T00:30:25.013Z,7.68
2023-04-25T00:32:27.987Z,6.82
2023-04-25T00:34:30.561Z,5.28
2023-04-25T00:36:33.176Z,8.80
2023-04-25T00:38:35.872Z,13.95
2023-04-25T00:40:38.466Z,8.25
2023-04-25T00:42:42.921Z,4.35
2023-04-25T00:44:46.376Z,5.38
2023-04-25T00:46:50.607Z,6.90
2023-04-25T00:48:53.355Z,6.25
2023-04-25T00:50:58.920Z,8.45
2023-04-25T00:53:02.011Z,8.10
2023-04-25T00:55:05.380Z,8.25
2023-04-25T00:57:08.076Z,7.38
2023-04-25T00:59:11.153Z,14.98
2023-04-25T01:01:14.559Z,6.38
2023-04-25T01:03:18.636Z,4.80
2023-04-25T01:05:21.348Z,10.65
2023-04-25T01:07:23.986Z,6.68
2023-04-25T01:09:27.255Z,9.02
2023-04-25T01:11:29.810Z,10.25
2023-04-25T01:13:33.358Z,11.07
2023-04-25T01:15:37.203Z,6.65
2023-04-25T01:17:42.554Z,7.53
2023-04-25T01:19:47.159Z,10.38
2023-04-25T01:21:49.968Z,9.40
2023-04-25T01:23:52.993Z,8.88
2023-04-25T01:25:56.402Z,7.43
2023-04-25T01:27:59.832Z,7.45
2023-04-25T01:30:02.515Z,7.20
2023-04-25T01:32:09.492Z,5.70
2023-04-25T01:34:13.452Z,9.75
2023-04-25T01:36:16.580Z,8.07
2023-04-25T01:38:19.118Z,11.73
2023-04-25T01:40:23.585Z,9.15
2023-04-25T01:42:26.271Z,9.77
2023-04-25T01:44:29.268Z,8.57
2023-04-25T01:46:32.367Z,8.57
2023-04-25T01:48:35.114Z,9.02
2023-04-25T01:50:39.559Z,6.60
2023-04-25T01:52:42.156Z,9.20
2023-04-25T01:54:45.847Z,8.93
2023-04-25T01:56:52.318Z,7.90
2023-04-25T01:58:55.207Z,11.13
2023-04-25T02:00:57.999Z,8.02
2023-04-25T02:03:00.712Z,9.18
2023-04-25T02:05:03.709Z,7.25
2023-04-25T02:07:06.875Z,6.05
2023-04-25T02:09:09.490Z,6.25
2023-04-25T02:11:12.507Z,6.03
2023-04-25T02:13:15.128Z,4.43
2023-04-25T02:15:17.881Z,4.53
2023-04-25T02:17:22.421Z,9.93
2023-04-25T02:19:25.035Z,6.30
2023-04-25T02:21:27.714Z,5.18
2023-04-25T02:23:30.380Z,10.75
2023-04-25T02:25:32.991Z,6.03
2023-04-25T02:27:35.801Z,4.80
2023-04-25T02:29:39.363Z,7.22
2023-04-25T02:31:42.004Z,5.55
2023-04-25T02:33:45.020Z,5.22
2023-04-25T02:35:47.749Z,5.15
2023-04-25T02:37:50.356Z,7.30
2023-04-25T02:39:52.980Z,5.70
2023-04-25T02:41:55.734Z,4.50
2023-04-25T02:43:58.302Z,6.95
2023-04-25T02:46:01.010Z,5.78
2023-04-25T02:48:04.624Z,9.32
2023-04-25T02:50:07.818Z,3.58
2023-04-25T02:52:10.493Z,3.88
2023-04-25T02:54:13.113Z,8.57
2023-04-25T02:56:15.718Z,4.50
2023-04-25T02:58:18.761Z,4.97
2023-04-25T03:00:21.362Z,6.30
2023-04-25T03:02:23.947Z,8.30
2023-04-25T03:04:26.723Z,5.28
2023-04-25T03:06:29.386Z,8.70
2023-04-25T03:08:33.696Z,3.63
2023-04-25T03:10:36.433Z,8.18
2023-04-25T03:12:39.149Z,6.88
2023-04-25T03:14:41.776Z,5.07
2023-04-25T03:16:44.464Z,8.50
2023-04-25T03:18:47.009Z,8.30
2023-04-25T03:20:49.550Z,6.43
2023-04-25T03:22:52.188Z,8.40
2023-04-25T03:24:54.809Z,5.80
2023-04-25T03:26:57.513Z,3.95
2023-04-25T03:29:00.046Z,3.03
2023-04-25T03:31:02.620Z,4.05
2023-04-25T03:33:05.184Z,4.32
2023-04-25T03:35:08.358Z,12.85
2023-04-25T03:37:11.060Z,3.92
2023-04-25T03:39:13.940Z,9.75
2023-04-25T03:41:16.825Z,2.97
2023-04-25T03:43:19.566Z,7.57
2023-04-25T03:45:22.299Z,8.23
2023-04-25T03:47:24.926Z,6.90
2023-04-25T03:49:27.584Z,7.65
2023-04-25T03:51:30.327Z,8.10
2023-04-25T03:53:32.863Z,8.60
2023-04-25T03:55:35.877Z,9.48
2023-04-25T03:57:38.420Z,7.53
2023-04-25T03:59:41.036Z,9.23
2023-04-25T04:01:43.841Z,9.82
2023-04-25T04:03:46.832Z,10.60
2023-04-25T04:05:49.930Z,9.07
2023-04-25T04:07:52.508Z,4.75
2023-04-25T04:09:55.113Z,7.65
2023-04-25T04:11:57.886Z,4.60
2023-04-25T04:14:01.124Z,10.77
2023-04-25T04:16:05.430Z,12.27
2023-04-25T04:18:08.181Z,3.47
2023-04-25T04:20:11.168Z,6.47
2023-04-25T04:22:13.748Z,5.65
2023-04-25T04:24:17.915Z,6.07
2023-04-25T04:26:20.548Z,6.63
2023-04-25T04:28:23.138Z,6.15
2023-04-25T04:30:26.561Z,8.68
2023-04-25T04:32:29.121Z,5.28
2023-04-25T04:34:32.208Z,3.72
2023-04-25T04:36:34.870Z,7.50
2023-04-25T04:38:38.351Z,3.38
2023-04-25T04:40:44.217Z,8.40
2023-04-25T04:42:46.804Z,3.00
2023-04-25T04:44:49.359Z,7.60
2023-04-25T04:46:53.032Z,3.90
2023-04-25T04:48:57.496Z,6.47
2023-04-25T04:51:00.219Z,3.97
2023-04-25T04:53:03.396Z,3.72
2023-04-25T04:55:06.949Z,2.55
2023-04-25T04:57:09.527Z,5.25
2023-04-25T04:59:12.114Z,6.88
2023-04-25T05:01:17.115Z,4.03
2023-04-25T05:03:19.902Z,5.07
2023-04-25T05:05:22.766Z,7.05
2023-04-25T05:07:26.046Z,2.05
2023-04-25T05:09:28.642Z,2.83
2023-04-25T05:11:31.322Z,3.95
2023-04-25T05:13:34.476Z,3.88
2023-04-25T05:15:37.326Z,3.38
2023-04-25T05:17:40.301Z,6.97
2023-04-25T05:19:43.062Z,7.45
2023-04-25T05:21:45.628Z,3.47
2023-04-25T05:23:48.172Z,5.35
2023-04-25T05:25:50.666Z,4.35
2023-04-25T05:27:53.570Z,4.97
2023-04-25T05:29:56.122Z,8.85
2023-04-25T05:31:58.776Z,7.35
2023-04-25T05:34:01.415Z,7.07
2023-04-25T05:36:04.124Z,8.75
2023-04-25T05:38:06.747Z,5.97
2023-04-25T05:40:09.995Z,2.33
2023-04-25T05:42:12.563Z,3.55
2023-04-25T05:44:17.065Z,4.72
2023-04-25T05:46:19.719Z,9.35
2023-04-25T05:48:22.340Z,9.73
2023-04-25T05:50:25.053Z,4.95
2023-04-25T05:52:27.604Z,4.65
2023-04-25T05:54:30.073Z,3.38
2023-04-25T05:56:32.676Z,3.58
2023-04-25T05:58:35.765Z,4.57
2023-04-25T06:00:39.698Z,5.40
2023-04-25T06:02:42.724Z,5.22
2023-04-25T06:04:45.523Z,9.60
2023-04-25T06:06:48.231Z,4.45
2023-04-25T06:08:51.589Z,9.63
2023-04-25T06:10:54.409Z,5.35
2023-04-25T06:12:56.906Z,5.00
2023-04-25T06:14:59.398Z,5.43
2023-04-25T06:17:07.468Z,1.88
2023-04-25T06:19:10.019Z,8.45
2023-04-25T06:21:12.679Z,5.20
2023-04-25T06:23:15.220Z,5.40
2023-04-25T06:25:17.945Z,3.33
2023-04-25T06:27:20.495Z,6.95
2023-04-25T06:29:23.077Z,5.80
2023-04-25T06:31:26.413Z,7.15
2023-04-25T06:33:29.800Z,4.35
2023-04-25T06:35:32.406Z,11.98
2023-04-25T06:37:34.982Z,3.10
2023-04-25T06:39:39.836Z,8.32
2023-04-25T06:41:43.649Z,3.80
2023-04-25T06:43:46.120Z,8.13
2023-04-25T06:45:48.828Z,4.63
2023-04-25T06:47:51.701Z,7.18
2023-04-25T06:49:54.299Z,6.22
2023-04-25T06:51:57.161Z,7.43
2023-04-25T06:54:00.639Z,6.85
2023-04-25T06:56:04.150Z,6.15
2023-04-25T06:58:06.742Z,4.68
2023-04-25T07:00:10.728Z,12.50
2023-04-25T07:02:13.670Z,8.32
2023-04-25T07:04:16.524Z,6.80
2023-04-25T07:06:19.535Z,4.68
2023-04-25T07:08:22.514Z,6.88
2023-04-25T07:10:25.166Z,6.03
2023-04-25T07:12:27.733Z,6.97
2023-04-25T07:14:30.263Z,6.65
2023-04-25T07:16:33.018Z,2.95
2023-04-25T07:18:35.541Z,7.75
2023-04-25T07:20:38.075Z,7.07
2023-04-25T07:22:40.642Z,4.05
2023-04-25T07:24:43.231Z,5.70
2023-04-25T07:26:46.053Z,6.88
2023-04-25T07:28:52.060Z,3.85
2023-04-25T07:30:54.845Z,5.07
2023-04-25T07:32:57.418Z,10.15
2023-04-25T07:34:59.977Z,5.35
2023-04-25T07:37:02.614Z,5.20
2023-04-25T07:39:05.199Z,7.43
2023-04-25T07:41:07.921Z,4.20
2023-04-25T07:43:13.389Z,11.65
2023-04-25T07:45:16.562Z,6.15
2023-04-25T07:47:20.427Z,9.32
2023-04-25T07:49:23.216Z,3.72
2023-04-25T07:51:25.782Z,7.32
2023-04-25T07:53:28.402Z,7.60
2023-04-25T07:55:31.080Z,38.65
2023-04-25T07:57:33.685Z,7.50
2023-04-25T07:59:36.274Z,5.97
2023-04-25T08:01:38.961Z,6.53
2023-04-25T08:03:41.755Z,10.07
2023-04-25T08:05:44.928Z,10.25
2023-04-25T08:07:47.704Z,12.40
2023-04-25T08:09:50.364Z,6.55
2023-04-25T08:11:53.027Z,11.57
2023-04-25T08:13:55.589Z,11.98
2023-04-25T08:15:58.337Z,2.05
2023-04-25T08:18:00.989Z,7.03
2023-04-25T08:20:06.937Z,10.05
2023-04-25T08:22:10.178Z,9.20
2023-04-25T08:24:12.867Z,13.25
2023-04-25T08:26:16.113Z,5.00
2023-04-25T08:28:18.666Z,11.07
2023-04-25T08:30:22.099Z,11.57
2023-04-25T08:32:24.872Z,7.60
2023-04-25T08:34:27.442Z,7.07
2023-04-25T08:38:35.588Z,7.47
2023-04-25T08:40:40.862Z,6.82
2023-04-25T08:42:44.017Z,9.85
2023-04-25T08:44:47.408Z,5.43
2023-04-25T08:46:51.233Z,4.95
2023-04-25T08:48:57.879Z,9.57
2023-04-25T08:51:03.761Z,11.77
2023-04-25T08:53:11.493Z,7.57
2023-04-25T08:55:15.315Z,10.70
2023-04-25T08:57:18.964Z,4.47
2023-04-25T08:59:23.749Z,7.18
2023-04-25T09:01:26.976Z,7.18
2023-04-25T09:03:29.804Z,4.03
2023-04-25T09:05:36.692Z,5.18
2023-04-25T09:07:39.272Z,16.38
2023-04-25T09:09:41.824Z,7.03
2023-04-25T09:11:44.539Z,6.93
2023-04-25T09:13:47.208Z,10.13
2023-04-25T09:15:57.985Z,5.38
2023-04-25T09:18:01.255Z,6.20
2023-04-25T09:20:09.202Z,14.38
2023-04-25T09:22:11.900Z,8.80
2023-04-25T09:24:14.555Z,12.38
2023-04-25T09:26:19.499Z,3.85
2023-04-25T09:28:28.613Z,6.45
2023-04-25T09:30:35.219Z,3.50
2023-04-25T09:32:38.285Z,9.43
2023-04-25T09:34:45.107Z,5.25
2023-04-25T09:36:47.770Z,11.77
2023-04-25T09:38:50.342Z,5.07
2023-04-25T09:40:53.332Z,7.53
2023-04-25T09:42:56.374Z,7.65
2023-04-25T09:45:00.174Z,12.32
2023-04-25T09:47:04.095Z,5.40
2023-04-25T09:49:09.650Z,5.80
2023-04-25T09:51:15.015Z,7.22
2023-04-25T09:53:17.558Z,14.07
2023-04-25T09:55:21.515Z,10.75
2023-04-25T09:57:25.730Z,5.22
2023-04-25T09:59:32.727Z,4.13
2023-04-25T10:01:37.808Z,8.20
2023-04-25T10:03:48.002Z,4.57
2023-04-25T10:05:55.242Z,10.90
2023-04-25T10:07:58.799Z,13.82
2023-04-25T10:10:06.016Z,4.50
2023-04-25T10:12:10.134Z,7.72
2023-04-25T10:14:14.236Z,7.68
2023-04-25T10:16:17.633Z,9.20
2023-04-25T10:18:21.075Z,8.10
2023-04-25T10:20:24.418Z,16.48
2023-04-25T10:22:37.426Z,7.18
2023-04-25T10:24:40.627Z,5.20
2023-04-25T10:26:44.442Z,12.32
2023-04-25T10:28:58.035Z,6.13
2023-04-25T10:31:06.816Z,7.60
2023-04-25T10:33:20.070Z,4.43
2023-04-25T10:35:33.162Z,8.48
2023-04-25T10:37:39.485Z,18.13
2023-04-25T10:39:45.070Z,17.90
2023-04-25T10:41:54.184Z,5.00
2023-04-25T10:44:04.742Z,8.57
2023-04-25T10:46:21.311Z,7.87
2023-04-25T10:48:28.758Z,11.57
2023-04-25T10:50:40.711Z,14.55
2023-04-25T10:52:45.515Z,11.63
2023-04-25T10:54:55.519Z,7.45
2023-04-25T10:56:59.878Z,7.20
2023-04-25T10:59:19.449Z,16.73
2023-04-25T11:01:25.886Z,3.47
2023-04-25T11:03:28.756Z,11.45
2023-04-25T11:05:51.066Z,10.27
2023-04-25T11:08:07.566Z,11.65
2023-04-25T11:10:11.028Z,20.75
2023-04-25T11:12:14.320Z,5.38
2023-04-25T11:14:16.951Z,11.00
2023-04-25T11:16:27.460Z,11.05
2023-04-25T11:18:31.422Z,47.38
2023-04-25T11:20:34.129Z,24.67
2023-04-25T11:22:36.882Z,43.45
2023-04-25T11:24:39.581Z,15.77
2023-04-25T11:26:48.787Z,8.40
2023-04-25T11:28:51.427Z,7.30
2023-04-25T11:30:54.162Z,14.35
2023-04-25T11:32:56.890Z,13.70
2023-04-25T11:34:59.464Z,12.48
2023-04-25T11:37:03.281Z,6.45
2023-04-25T11:39:07.133Z,11.95
2023-04-25T11:41:09.715Z,10.85
2023-04-25T11:43:12.368Z,11.45
2023-04-25T11:45:16.924Z,12.70
2023-04-25T11:47:19.952Z,4.80
2023-04-25T11:49:23.275Z,4.65
2023-04-25T11:51:26.588Z,20.88
2023-04-25T11:53:29.484Z,7.63
2023-04-25T11:55:32.401Z,8.27
2023-04-25T11:57:35.084Z,9.23
2023-04-25T11:59:37.661Z,10.10
2023-04-25T12:01:42.047Z,8.10
2023-04-25T12:03:47.797Z,3.22
2023-04-25T12:05:51.826Z,7.63
2023-04-25T12:07:54.603Z,13.43
2023-04-25T12:09:57.268Z,19.35
2023-04-25T12:12:03.833Z,5.80
2023-04-25T12:14:06.903Z,5.03
2023-04-25T12:16:09.729Z,8.40
2023-04-25T12:18:12.735Z,7.45
2023-04-25T12:20:17.829Z,10.00
2023-04-25T12:22:25.964Z,5.88
2023-04-25T12:24:29.093Z,11.77
2023-04-25T12:26:47.639Z,6.70
2023-04-25T12:28:50.645Z,10.95
2023-04-25T12:31:06.343Z,26.13
2023-04-25T12:33:09.676Z,7.72
2023-04-25T12:35:12.251Z,33.72
2023-04-25T12:37:15.247Z,9.40
2023-04-25T12:39:18.315Z,19.15
2023-04-25T12:41:20.937Z,5.47
2023-04-25T12:43:23.878Z,17.25
2023-04-25T12:45:26.974Z,8.80
2023-04-25T12:47:29.646Z,4.10
2023-04-25T12:49:33.116Z,6.15
2023-04-25T12:51:37.399Z,5.20
2023-04-25T12:53:41.814Z,7.88
2023-04-25T12:55:47.063Z,4.63
2023-04-25T12:57:49.972Z,5.45
2023-04-25T12:59:52.564Z,9.15
2023-04-25T13:01:55.370Z,17.30
2023-04-25T13:03:58.087Z,6.68
2023-04-25T13:06:00.867Z,6.07
2023-04-25T13:08:03.787Z,8.52
2023-04-25T13:10:08.097Z,6.95
2023-04-25T13:12:11.282Z,4.75
2023-04-25T13:14:14.254Z,22.52
2023-04-25T13:16:17.162Z,12.30
2023-04-25T13:18:20.541Z,8.40
2023-04-25T13:20:23.698Z,7.65
2023-04-25T13:22:26.656Z,7.25
2023-04-25T13:24:29.246Z,5.63
2023-04-25T13:26:32.168Z,7.13
2023-04-25T13:28:35.034Z,9.20
2023-04-25T13:30:38.235Z,6.70
2023-04-25T13:32:42.257Z,8.02
2023-04-25T13:34:47.322Z,5.13
2023-04-25T13:36:50.334Z,11.30
2023-04-25T13:38:53.208Z,5.05
2023-04-25T13:40:56.275Z,9.15
2023-04-25T13:43:00.469Z,5.63
2023-04-25T13:45:03.973Z,8.52
2023-04-25T13:47:11.278Z,6.20
2023-04-25T13:49:14.341Z,5.22
2023-04-25T13:51:18.699Z,5.25
2023-04-25T13:53:22.237Z,4.05
2023-04-25T13:55:24.928Z,4.10
2023-04-25T13:57:27.486Z,10.52
2023-04-25T13:59:30.080Z,8.15
2023-04-25T14:01:35.505Z,7.50
2023-04-25T14:03:38.398Z,7.32
2023-04-25T14:05:42.158Z,7.50
2023-04-25T14:07:46.262Z,7.05
2023-04-25T14:09:49.091Z,6.57
2023-04-25T14:11:51.609Z,9.73
2023-04-25T14:13:54.273Z,13.52
2023-04-25T14:15:57.023Z,7.72
2023-04-25T14:18:00.825Z,8.77
2023-04-25T14:20:03.523Z,5.43
2023-04-25T14:22:07.759Z,5.75
2023-04-25T14:24:12.051Z,12.85
2023-04-25T14:26:14.667Z,10.05
2023-04-25T14:28:17.182Z,9.07
2023-04-25T14:30:21.515Z,8.00
2023-04-25T14:32:24.375Z,6.30
2023-04-25T14:34:27.040Z,6.65
2023-04-25T14:36:30.060Z,9.18
2023-04-25T14:38:32.562Z,10.90
2023-04-25T14:40:35.100Z,7.07
2023-04-25T14:42:38.120Z,8.82
2023-04-25T14:44:40.823Z,10.65
2023-04-25T14:46:43.600Z,7.10
2023-04-25T14:48:46.828Z,4.93
2023-04-25T14:50:49.581Z,14.77
2023-04-25T14:52:53.846Z,8.32
2023-04-25T14:54:56.643Z,8.98
2023-04-25T14:56:59.337Z,10.20
2023-04-25T14:59:01.846Z,4.65
2023-04-25T15:01:04.728Z,9.93
2023-04-25T15:03:08.797Z,10.05
2023-04-25T15:05:11.687Z,6.57
2023-04-25T15:07:15.769Z,8.85
2023-04-25T15:09:20.492Z,7.95
2023-04-25T15:11:23.200Z,4.95
2023-04-25T15:13:26.735Z,5.05
2023-04-25T15:15:29.309Z,6.00
2023-04-25T15:17:32.304Z,5.90
2023-04-25T15:19:34.946Z,5.43
2023-04-25T15:21:37.581Z,10.02
2023-04-25T15:23:40.257Z,10.25
2023-04-25T15:25:43.234Z,7.63
2023-04-25T15:27:47.694Z,9.77
2023-04-25T15:29:50.265Z,4.78
2023-04-25T15:31:53.021Z,4.47
2023-04-25T15:33:55.688Z,5.63
2023-04-25T15:35:59.031Z,10.77
2023-04-25T15:38:01.704Z,5.72
2023-04-25T15:40:10.847Z,6.40
2023-04-25T15:42:13.882Z,6.18
2023-04-25T15:44:16.590Z,8.07
2023-04-25T15:46:19.252Z,6.93
2023-04-25T15:48:21.974Z,12.50
2023-04-25T15:50:25.217Z,6.53
2023-04-25T15:52:27.925Z,6.72
2023-04-25T15:54:32.740Z,7.07
2023-04-25T15:56:35.383Z,8.63
2023-04-25T15:58:38.234Z,8.35
2023-04-25T16:00:40.921Z,6.53
2023-04-25T16:02:45.757Z,5.97
2023-04-25T16:04:48.950Z,6.82
2023-04-25T16:06:52.451Z,10.60
2023-04-25T16:08:55.388Z,6.38
2023-04-25T16:10:58.084Z,7.25
2023-04-25T16:13:00.661Z,6.07
2023-04-25T16:15:04.112Z,5.22
2023-04-25T16:17:08.263Z,6.63
2023-04-25T16:19:11.276Z,5.30
2023-04-25T16:21:17.356Z,8.50
2023-04-25T16:23:20.119Z,4.35
2023-04-25T16:25:22.714Z,8.23
2023-04-25T16:27:25.836Z,8.38
2023-04-25T16:29:28.431Z,5.18
2023-04-25T16:31:31.167Z,9.70
2023-04-25T16:33:34.713Z,9.73
2023-04-25T16:35:37.286Z,10.13
2023-04-25T16:37:39.959Z,7.20
2023-04-25T16:39:42.524Z,7.90
2023-04-25T16:41:45.225Z,7.78
2023-04-25T16:43:47.799Z,6.82
2023-04-25T16:45:50.471Z,6.32
2023-04-25T16:47:53.385Z,8.93
2023-04-25T16:49:56.215Z,6.25
2023-04-25T16:51:58.843Z,7.70
2023-04-25T16:54:01.750Z,5.05
2023-04-25T16:56:04.833Z,7.10
2023-04-25T16:58:09.922Z,6.30
2023-04-25T17:00:13.807Z,9.07
2023-04-25T17:02:17.498Z,7.50
2023-04-25T17:04:20.346Z,9.93
2023-04-25T17:06:23.035Z,10.13
2023-04-25T17:08:25.667Z,11.20
2023-04-25T17:10:28.957Z,7.53
2023-04-25T17:12:31.662Z,11.88
2023-04-25T17:14:36.183Z,15.15
2023-04-25T17:16:39.467Z,12.73
2023-04-25T17:18:43.317Z,11.60
2023-04-25T17:20:46.797Z,9.90
2023-04-25T17:22:49.879Z,10.23
2023-04-25T17:24:52.433Z,9.02
2023-04-25T17:26:57.372Z,10.00
2023-04-25T17:28:59.916Z,10.80
2023-04-25T17:31:02.545Z,17.02
2023-04-25T17:33:06.873Z,12.45
2023-04-25T17:35:10.341Z,11.57
2023-04-25T17:37:16.331Z,10.70
2023-04-25T17:39:20.234Z,12.77
2023-04-25T17:41:22.866Z,10.07
2023-04-25T17:43:26.808Z,13.82
2023-04-25T17:45:34.729Z,13.07
2023-04-25T17:47:37.434Z,13.70
2023-04-25T17:49:40.249Z,14.50
2023-04-25T17:51:42.858Z,16.38
2023-04-25T17:53:45.455Z,16.20
2023-04-25T17:55:50.596Z,10.38
2023-04-25T17:57:53.211Z,10.35
2023-04-25T17:59:57.915Z,15.57
2023-04-25T18:02:01.198Z,12.65
2023-04-25T18:04:04.496Z,11.52
2023-04-25T18:06:07.372Z,13.32
2023-04-25T18:08:10.414Z,18.90
2023-04-25T18:10:13.068Z,13.02
2023-04-25T18:12:15.833Z,12.50
2023-04-25T18:14:20.540Z,15.32
2023-04-25T18:16:23.330Z,8.90
2023-04-25T18:18:33.229Z,9.90
2023-04-25T18:20:35.917Z,12.20
2023-04-25T18:22:38.674Z,7.38
2023-04-25T18:24:41.438Z,6.47
2023-04-25T18:26:48.789Z,14.48
2023-04-25T18:28:52.081Z,9.88
2023-04-25T18:30:55.117Z,11.57
2023-04-25T18:32:59.007Z,15.07
2023-04-25T18:35:01.805Z,9.32
2023-04-25T18:37:08.663Z,7.40
2023-04-25T18:39:21.991Z,10.05
2023-04-25T18:41:51.081Z,10.60
2023-04-25T18:43:49.153Z,12.27
2023-04-25T18:45:52.429Z,14.25
2023-04-25T18:47:55.250Z,9.77
2023-04-25T18:49:57.956Z,20.75
2023-04-25T18:52:01.012Z,10.57
2023-04-25T18:54:04.735Z,12.48
2023-04-25T18:56:07.886Z,8.52
2023-04-25T18:58:10.639Z,16.83
2023-04-25T19:00:14.125Z,9.50
2023-04-25T19:02:18.047Z,10.75
2023-04-25T19:04:21.665Z,10.98
2023-04-25T19:06:29.182Z,9.70
2023-04-25T19:08:31.865Z,16.90
2023-04-25T19:10:34.568Z,11.32
2023-04-25T19:12:37.495Z,12.13
2023-04-25T19:14:40.652Z,13.20
2023-04-25T19:16:43.370Z,11.00
2023-04-25T19:18:47.114Z,15.10
2023-04-25T19:20:49.803Z,8.45
2023-04-25T19:22:52.982Z,15.40
2023-04-25T19:25:02.969Z,22.42
2023-04-25T19:27:11.621Z,12.90
2023-04-25T19:29:15.291Z,11.82
2023-04-25T19:31:19.296Z,16.48
2023-04-25T19:33:22.025Z,16.50
2023-04-25T19:35:24.982Z,17.73
2023-04-25T19:37:27.705Z,16.98
2023-04-25T19:39:30.387Z,15.48
2023-04-25T19:41:36.130Z,13.57
2023-04-25T19:43:38.875Z,21.63
2023-04-25T19:45:41.554Z,19.10
2023-04-25T19:47:45.024Z,23.08
2023-04-25T19:49:47.721Z,28.85
2023-04-25T19:51:50.453Z,27.17
2023-04-25T19:53:56.300Z,24.30
2023-04-25T19:55:59.214Z,19.65
2023-04-25T19:58:02.690Z,28.92
2023-04-25T20:00:14.464Z,20.38
2023-04-25T20:04:21.392Z,28.50
2023-04-25T20:06:24.037Z,21.42
2023-04-25T20:08:26.683Z,22.60
2023-04-25T20:10:29.289Z,31.20
2023-04-25T20:12:32.223Z,33.47
2023-04-25T20:14:34.861Z,26.52
2023-04-25T20:16:37.605Z,31.02
2023-04-25T20:18:40.406Z,29.17
2023-04-25T20:20:42.964Z,26.23
2023-04-25T20:22:45.688Z,28.48
2023-04-25T20:24:48.252Z,23.80
2023-04-25T20:26:51.003Z,26.75
2023-04-25T20:28:54.227Z,29.58
2023-04-25T20:30:57.178Z,25.92
2023-04-25T20:33:01.866Z,28.75
2023-04-25T20:35:07.345Z,27.90
2023-04-25T20:37:10.057Z,31.08
2023-04-25T20:39:12.808Z,29.10
2023-04-25T20:41:15.980Z,29.48
2023-04-25T20:43:19.986Z,32.90
2023-04-25T20:45:24.578Z,27.15
2023-04-25T20:47:27.785Z,30.65
2023-04-25T20:49:30.381Z,27.98
2023-04-25T20:51:33.704Z,26.33
2023-04-25T20:53:36.551Z,32.08
2023-04-25T20:55:41.691Z,34.42
2023-04-25T20:57:44.280Z,44.15
2023-04-25T20:59:47.824Z,36.38
2023-04-25T21:02:19.824Z,32.53
2023-04-25T21:04:24.321Z,36.13
2023-04-25T21:06:27.817Z,36.78
2023-04-25T21:08:30.615Z,37.75
2023-04-25T21:10:34.953Z,37.17
2023-04-25T21:12:38.897Z,43.22
2023-04-25T21:14:41.698Z,38.05
2023-04-25T21:16:44.479Z,42.67
2023-04-25T21:18:47.152Z,38.50
2023-04-25T21:20:49.990Z,45.10
2023-04-25T21:22:54.167Z,37.80
2023-04-25T21:24:57.403Z,47.33
2023-04-25T21:27:00.126Z,36.33
2023-04-25T21:29:02.984Z,41.50
2023-04-25T21:31:05.777Z,38.20
2023-04-25T21:33:08.657Z,40.30
2023-04-25T21:35:12.044Z,35.92
2023-04-25T21:37:14.850Z,41.47
2023-04-25T21:39:17.629Z,39.08
2023-04-25T21:41:20.392Z,36.55
2023-04-25T21:43:23.098Z,23.40
2023-04-25T21:45:26.063Z,42.83
2023-04-25T21:47:29.641Z,34.10
2023-04-25T21:49:33.069Z,37.13
2023-04-25T21:51:35.778Z,39.78
2023-04-25T21:53:38.443Z,28.50
2023-04-25T21:55:41.163Z,40.67
2023-04-25T21:57:43.922Z,41.75
2023-04-25T21:59:46.764Z,41.92
2023-04-25T22:01:50.145Z,46.92
2023-04-25T22:03:53.004Z,45.13
2023-04-25T22:05:56.689Z,41.17
2023-04-25T22:07:59.484Z,39.58
2023-04-25T22:10:02.799Z,45.60
2023-04-25T22:12:06.257Z,38.42
2023-04-25T22:14:10.034Z,44.92
2023-04-25T22:16:12.885Z,38.15
2023-04-25T22:18:16.497Z,42.13
2023-04-25T22:20:23.337Z,44.88
2023-04-25T22:22:26.647Z,43.72
2023-04-25T22:24:30.200Z,42.25
2023-04-25T22:26:33.768Z,50.35
2023-04-25T22:28:37.427Z,40.85
2023-04-25T22:30:40.230Z,37.63
2023-04-25T22:32:43.619Z,35.75
2023-04-25T22:34:46.996Z,32.45
2023-04-25T22:36:49.757Z,34.80
2023-04-25T22:38:53.296Z,31.75
2023-04-25T22:40:56.545Z,28.13
2023-04-25T22:42:59.293Z,29.38
2023-04-25T22:45:02.243Z,32.70
2023-04-25T22:47:06.508Z,27.00
2023-04-25T22:49:09.191Z,27.10
2023-04-25T22:51:12.937Z,21.95
2023-04-25T22:53:16.536Z,25.58
2023-04-25T22:55:19.291Z,31.85
2023-04-25T22:57:23.244Z,29.05
2023-04-25T22:59:26.420Z,28.30
2023-04-25T23:01:29.356Z,31.58
2023-04-25T23:03:32.754Z,31.63
2023-04-25T23:05:35.674Z,29.92
2023-04-25T23:07:39.076Z,21.05
2023-04-25T23:09:41.956Z,22.02
2023-04-25T23:11:44.886Z,17.33
2023-04-25T23:13:48.321Z,20.10
2023-04-25T23:15:51.006Z,11.85
2023-04-25T23:17:53.885Z,14.50
2023-04-25T23:19:56.670Z,12.77
2023-04-25T23:22:00.176Z,12.27
2023-04-25T23:24:02.934Z,15.02
2023-04-25T23:26:09.900Z,13.82
2023-04-25T23:28:12.993Z,17.88
2023-04-25T23:30:16.108Z,19.50
2023-04-25T23:32:18.802Z,21.02
2023-04-25T23:34:21.718Z,31.70
2023-04-25T23:36:24.545Z,34.40
2023-04-25T23:38:27.650Z,39.40
2023-04-25T23:40:31.923Z,38.38
2023-04-25T23:42:35.470Z,40.90
2023-04-25T23:44:38.208Z,39.65
2023-04-25T23:46:41.754Z,35.03
2023-04-25T23:48:44.549Z,38.65
2023-04-25T23:50:47.329Z,40.75
2023-04-25T23:52:50.061Z,42.58
2023-04-25T23:54:52.727Z,37.47
2023-04-25T23:56:55.413Z,42.97
2023-04-25T23:58:58.438Z,40.88
